Time;durP1;ratioP1;P1;durP2;ratioP2;P2;SDS_P1;SDS_P2;PMS_P1;PMS_P2;Temp;Humidity;BMP_temperature;BMP_pressure;BME280_temperature;BME280_humidity;BME280_pressure;Samples;Min_cycle;Max_cycle;Signal;HPM_P1;HPM_P2
2022/04/05 00:00:45;;;;;;;25.25;13.95;;;4.50;99.90;;;;;;5241524;28;20048;-76
2022/04/05 00:03:17;;;;;;;25.73;14.10;;;4.50;99.90;;;;;;5227910;28;20040;-76
2022/04/05 00:05:51;;;;;;;29.38;14.57;;;4.50;99.90;;;;;;5226981;28;20048;-76
2022/04/05 00:08:23;;;;;;;25.73;13.20;;;4.50;99.90;;;;;;5244092;28;20043;-76
2022/04/05 00:10:56;;;;;;;27.95;13.93;;;4.40;99.90;;;;;;5246470;28;20066;-76
2022/04/05 00:13:28;;;;;;;23.58;13.20;;;4.40;99.90;;;;;;5246708;28;20059;-77
2022/04/05 00:16:01;;;;;;;28.65;13.18;;;4.40;99.90;;;;;;5236667;28;20049;-76
2022/04/05 00:18:33;;;;;;;23.95;14.25;;;4.40;99.90;;;;;;5247433;28;20132;-76
2022/04/05 00:21:06;;;;;;;26.00;14.63;;;4.30;99.90;;;;;;5220456;28;20048;-77
2022/04/05 00:23:38;;;;;;;28.37;14.17;;;4.30;99.90;;;;;;5243250;28;20048;-76
2022/04/05 00:26:11;;;;;;;26.38;14.15;;;4.30;99.90;;;;;;5247787;28;20293;-77
2022/04/05 00:28:43;;;;;;;28.08;15.43;;;4.30;99.90;;;;;;5219890;28;20052;-76
2022/04/05 00:31:16;;;;;;;26.38;13.80;;;4.20;99.90;;;;;;5248522;28;20826;-77
2022/04/05 00:33:48;;;;;;;25.33;12.90;;;4.30;99.90;;;;;;5247831;28;20044;-76
2022/04/05 00:36:21;;;;;;;26.42;13.93;;;4.20;99.90;;;;;;5246752;28;20048;-77
2022/04/05 00:38:53;;;;;;;25.75;13.32;;;4.30;99.90;;;;;;5241973;28;20044;-77
2022/04/05 00:41:26;;;;;;;24.88;13.75;;;4.20;99.90;;;;;;5247967;28;20047;-75
2022/04/05 00:43:58;;;;;;;25.92;14.52;;;4.20;99.90;;;;;;5246262;28;20067;-76
2022/04/05 00:46:31;;;;;;;27.02;14.55;;;4.20;99.90;;;;;;5249838;28;20044;-76
2022/04/05 00:49:04;;;;;;;26.60;14.18;;;4.20;99.90;;;;;;5249793;28;20040;-76
2022/04/05 00:51:36;;;;;;;27.88;13.52;;;4.20;99.90;;;;;;5228177;28;20079;-76
2022/04/05 00:54:14;;;;;;;31.50;16.35;;;4.20;99.90;;;;;;5248686;28;20055;-76
2022/04/05 00:56:46;;;;;;;31.40;15.27;;;4.20;99.90;;;;;;5210993;28;20970;-77
2022/04/05 00:59:21;;;;;;;29.38;12.98;;;4.20;99.90;;;;;;5239898;28;20051;-76
2022/04/05 01:01:56;;;;;;;24.20;13.50;;;4.20;99.90;;;;;;5249709;28;20056;-75
2022/04/05 01:04:30;;;;;;;24.45;12.93;;;4.20;99.90;;;;;;5243897;28;20047;-76
2022/04/05 01:07:06;;;;;;;23.15;12.55;;;4.30;99.90;;;;;;5232491;28;20032;-76
2022/04/05 01:09:39;;;;;;;27.67;13.77;;;4.30;99.90;;;;;;5255469;28;20044;-76
2022/04/05 01:12:13;;;;;;;24.63;13.13;;;4.40;99.90;;;;;;5252298;28;20396;-76
2022/04/05 01:14:47;;;;;;;24.25;13.18;;;4.40;99.90;;;;;;5242591;28;20044;-76
2022/04/05 01:17:39;;;;;;;24.85;13.77;;;4.50;99.90;;;;;;5253305;28;20590;-76
2022/04/05 01:20:29;;;;;;;25.63;13.25;;;4.50;99.90;;;;;;5250739;28;20036;-76
2022/04/05 01:23:01;;;;;;;21.77;12.23;;;4.50;99.90;;;;;;5252621;28;20456;-76
2022/04/05 01:25:34;;;;;;;21.15;10.80;;;4.50;99.90;;;;;;5238821;28;20305;-76
2022/04/05 01:28:06;;;;;;;23.60;12.32;;;4.60;99.80;;;;;;5251773;28;20044;-75
2022/04/05 01:30:39;;;;;;;24.33;12.40;;;4.60;99.80;;;;;;5250602;28;20044;-76
2022/04/05 01:33:11;;;;;;;23.55;12.27;;;4.60;99.80;;;;;;5246933;28;20188;-77
2022/04/05 01:35:45;;;;;;;22.55;12.43;;;4.60;99.70;;;;;;5232873;28;20049;-76
2022/04/05 01:38:18;;;;;;;22.55;12.52;;;4.60;99.90;;;;;;5248490;28;20084;-76
2022/04/05 01:40:51;;;;;;;30.10;14.33;;;4.60;99.90;;;;;;5253194;28;20495;-76
2022/04/05 01:43:23;;;;;;;23.17;12.35;;;4.60;99.90;;;;;;5249085;28;20064;-76
2022/04/05 01:45:56;;;;;;;23.15;11.82;;;4.60;99.90;;;;;;5253475;28;20067;-76
2022/04/05 01:48:29;;;;;;;20.75;12.38;;;4.60;99.90;;;;;;5230343;28;20403;-76
2022/04/05 01:51:01;;;;;;;22.75;12.80;;;4.60;99.90;;;;;;5233961;28;20052;-76
2022/04/05 01:53:34;;;;;;;23.65;12.27;;;4.50;99.90;;;;;;5233749;28;20043;-76
2022/04/05 01:56:06;;;;;;;25.27;12.10;;;4.50;99.90;;;;;;5252712;28;20056;-76
2022/04/05 01:58:38;;;;;;;19.20;11.32;;;4.50;99.90;;;;;;5248116;28;20052;-75
2022/04/05 02:01:11;;;;;;;19.73;11.63;;;4.50;99.90;;;;;;5244691;28;20040;-76
2022/04/05 02:03:44;;;;;;;19.83;11.53;;;4.50;99.90;;;;;;5250213;28;20048;-76
2022/04/05 02:06:17;;;;;;;18.50;11.43;;;4.40;99.90;;;;;;5226145;28;20312;-75
2022/04/05 02:08:49;;;;;;;22.48;11.95;;;4.50;99.90;;;;;;5247168;28;20055;-76
2022/04/05 02:11:23;;;;;;;19.73;10.75;;;4.40;99.90;;;;;;5209778;28;20423;-76
2022/04/05 02:13:59;;;;;;;17.08;9.75;;;4.40;99.90;;;;;;5230269;28;20481;-77
2022/04/05 02:16:32;;;;;;;23.23;11.60;;;4.30;99.90;;;;;;5228659;28;20147;-76
2022/04/05 02:19:06;;;;;;;23.15;12.43;;;4.30;99.90;;;;;;5230096;28;20056;-76
2022/04/05 02:21:41;;;;;;;19.95;11.35;;;4.20;99.90;;;;;;5220729;28;20048;-76
2022/04/05 02:24:13;;;;;;;20.27;11.20;;;4.20;99.90;;;;;;5238235;28;20043;-77
2022/04/05 02:26:46;;;;;;;20.13;11.23;;;4.10;99.90;;;;;;5230472;28;20513;-76
2022/04/05 02:29:20;;;;;;;18.15;10.30;;;4.20;99.90;;;;;;5199438;28;20853;-77
2022/04/05 02:31:57;;;;;;;18.15;10.00;;;4.20;99.90;;;;;;5229256;28;20036;-77
2022/04/05 02:34:30;;;;;;;16.97;9.73;;;4.30;99.90;;;;;;5251459;28;20059;-76
2022/04/05 02:37:06;;;;;;;16.20;9.75;;;4.30;99.90;;;;;;5231854;28;20043;-76
2022/04/05 02:39:41;;;;;;;17.90;9.63;;;4.30;99.90;;;;;;5245063;28;22471;-76
2022/04/05 02:42:15;;;;;;;16.00;8.65;;;4.40;99.90;;;;;;5250023;28;20048;-76
2022/04/05 02:44:48;;;;;;;20.77;9.95;;;4.50;99.90;;;;;;5230416;28;20072;-76
2022/04/05 02:47:22;;;;;;;14.00;7.35;;;4.50;99.90;;;;;;5247352;28;20413;-77
2022/04/05 02:49:55;;;;;;;17.02;9.10;;;4.60;99.90;;;;;;5215514;28;20531;-76
2022/04/05 02:52:33;;;;;;;12.85;7.55;;;4.70;99.90;;;;;;5237064;28;20123;-75
2022/04/05 02:55:08;;;;;;;14.50;8.43;;;4.80;99.90;;;;;;5222383;28;20526;-76
2022/04/05 02:57:42;;;;;;;14.43;8.25;;;4.80;99.30;;;;;;5242150;28;20143;-76
2022/04/05 03:00:21;;;;;;;15.82;7.97;;;4.90;98.50;;;;;;5237755;28;20044;-76
2022/04/05 03:02:55;;;;;;;17.48;8.50;;;5.00;97.90;;;;;;5226193;28;20036;-76
2022/04/05 03:05:28;;;;;;;13.17;8.10;;;5.00;97.20;;;;;;5218612;28;20062;-76
2022/04/05 03:08:05;;;;;;;14.57;6.63;;;5.10;97.00;;;;;;5230780;28;20062;-76
2022/04/05 03:10:39;;;;;;;15.57;8.52;;;5.10;95.40;;;;;;5228610;28;20052;-75
2022/04/05 03:13:13;;;;;;;;;;;5.10;95.00;;;;;;5206785;28;20028;-76
2022/04/05 03:15:47;;;;;;;13.13;7.72;;;5.10;94.90;;;;;;5236807;28;20387;-75
2022/04/05 03:18:20;;;;;;;15.27;7.97;;;5.20;95.00;;;;;;5241197;28;20071;-75
2022/04/05 03:20:53;;;;;;;18.00;7.38;;;5.20;94.60;;;;;;5231220;28;20052;-76
2022/04/05 03:23:26;;;;;;;15.68;8.07;;;5.30;93.90;;;;;;5240248;28;20574;-75
2022/04/05 03:25:59;;;;;;;14.25;7.70;;;5.30;93.20;;;;;;5243889;28;20079;-76
2022/04/05 03:28:34;;;;;;;13.68;8.13;;;5.40;93.00;;;;;;5245916;28;20067;-76
2022/04/05 03:31:07;;;;;;;12.75;8.13;;;5.40;92.90;;;;;;5225535;28;20063;-76
2022/04/05 03:33:40;;;;;;;14.60;7.77;;;5.50;92.50;;;;;;5200791;28;20039;-76
2022/04/05 03:36:16;;;;;;;13.50;7.85;;;5.50;92.30;;;;;;5227213;28;20059;-75
2022/04/05 03:38:49;;;;;;;20.27;8.73;;;5.50;92.10;;;;;;5216679;28;20075;-75
2022/04/05 03:41:22;;;;;;;;;;;5.50;91.90;;;;;;5203730;28;20048;-75
2022/04/05 03:43:55;;;;;;;15.30;7.93;;;5.50;92.00;;;;;;5235320;28;19954;-75
2022/04/05 03:46:34;;;;;;;15.68;7.38;;;5.50;91.90;;;;;;5223011;28;20051;-76
2022/04/05 03:49:09;;;;;;;14.23;8.20;;;5.60;92.00;;;;;;5225196;28;20063;-75
2022/04/05 03:51:46;;;;;;;14.48;8.18;;;5.60;91.90;;;;;;5225491;28;20518;-75
2022/04/05 03:54:18;;;;;;;14.98;8.30;;;5.60;91.70;;;;;;5223207;28;20114;-76
2022/04/05 03:56:52;;;;;;;13.02;7.80;;;5.60;91.50;;;;;;5220344;28;20048;-75
2022/04/05 03:59:26;;;;;;;13.80;7.88;;;5.70;91.60;;;;;;5220142;28;20075;-75
2022/04/05 04:01:59;;;;;;;13.32;7.85;;;5.70;91.60;;;;;;5225283;28;20036;-74
2022/04/05 04:04:32;;;;;;;14.38;8.38;;;5.70;91.40;;;;;;5222977;28;20052;-74
2022/04/05 04:07:05;;;;;;;13.47;8.23;;;5.70;91.00;;;;;;5201522;28;20048;-75
2022/04/05 04:09:38;;;;;;;11.73;7.90;;;5.70;91.10;;;;;;5197221;28;20298;-75
2022/04/05 04:12:13;;;;;;;13.98;8.13;;;5.70;91.10;;;;;;5200785;28;20055;-76
2022/04/05 04:14:46;;;;;;;13.10;7.65;;;5.80;90.90;;;;;;5205802;28;20051;-76
2022/04/05 04:17:25;;;;;;;15.63;7.15;;;5.80;90.90;;;;;;5236054;28;20051;-75
2022/04/05 04:19:57;;;;;;;;;;;5.80;91.50;;;;;;5212593;28;20048;-75
2022/04/05 04:22:30;;;;;;;13.25;6.57;;;5.70;93.30;;;;;;5230653;28;19916;-75
2022/04/05 04:25:03;;;;;;;10.90;6.38;;;5.50;93.50;;;;;;5211841;28;20048;-74
2022/04/05 04:27:37;;;;;;;11.38;6.43;;;5.50;93.60;;;;;;5219052;28;21022;-75
2022/04/05 04:30:10;;;;;;;9.95;5.97;;;5.50;94.00;;;;;;5214886;28;20044;-74
2022/04/05 04:32:42;;;;;;;11.27;6.30;;;5.50;93.80;;;;;;5215761;28;20044;-74
2022/04/05 04:35:15;;;;;;;13.25;6.97;;;5.50;93.80;;;;;;5232628;28;20079;-75
2022/04/05 04:37:47;;;;;;;11.75;6.30;;;5.50;93.60;;;;;;5234221;28;20051;-75
2022/04/05 04:40:20;;;;;;;12.15;6.65;;;5.50;93.30;;;;;;5237332;28;20387;-75
2022/04/05 04:42:53;;;;;;;14.80;7.10;;;5.60;93.10;;;;;;5226398;28;20052;-74
2022/04/05 04:45:28;;;;;;;11.52;6.28;;;5.60;92.60;;;;;;5224118;28;20788;-75
2022/04/05 04:48:01;;;;;;;11.48;6.78;;;5.60;92.60;;;;;;5230019;28;20047;-75
2022/04/05 04:50:34;;;;;;;15.80;7.32;;;5.70;92.30;;;;;;5214676;28;20051;-74
2022/04/05 04:53:06;;;;;;;13.20;7.20;;;5.70;92.20;;;;;;5238790;28;20032;-74
2022/04/05 04:55:39;;;;;;;12.73;7.60;;;5.70;92.30;;;;;;5246204;28;20077;-74
2022/04/05 04:58:32;;;;;;;12.85;7.55;;;5.70;92.80;;;;;;5223855;28;20040;-75
2022/04/05 05:01:05;;;;;;;14.18;8.27;;;5.70;92.90;;;;;;5220982;28;20048;-74
2022/04/05 05:03:37;;;;;;;20.42;8.75;;;5.60;93.30;;;;;;5218972;28;20423;-75
2022/04/05 05:06:10;;;;;;;16.08;8.98;;;5.60;93.40;;;;;;5207859;28;20044;-75
2022/04/05 05:08:43;;;;;;;15.20;9.02;;;5.60;93.50;;;;;;5218797;28;20411;-73
2022/04/05 05:11:16;;;;;;;16.08;8.88;;;5.60;93.30;;;;;;5215631;28;20059;-74
2022/04/05 05:13:49;;;;;;;;;;;5.70;94.10;;;;;;5201243;28;20036;-74
2022/04/05 05:16:21;;;;;;;19.00;9.73;;;5.50;94.90;;;;;;5184596;28;21091;-75
2022/04/05 05:18:54;;;;;;;15.65;8.65;;;5.50;95.00;;;;;;5230670;28;20105;-74
2022/04/05 05:21:27;;;;;;;15.48;9.02;;;5.50;95.50;;;;;;5249316;28;20047;-75
2022/04/05 05:23:59;;;;;;;15.57;8.93;;;5.40;96.10;;;;;;5251326;28;20056;-75
2022/04/05 05:26:31;;;;;;;16.83;9.00;;;5.40;96.30;;;;;;5247398;28;20052;-74
2022/04/05 05:29:04;;;;;;;14.25;7.57;;;5.40;96.30;;;;;;5209460;28;20044;-75
2022/04/05 05:31:40;;;;;;;15.98;8.77;;;5.40;95.80;;;;;;5224533;28;20178;-74
2022/04/05 05:34:16;;;;;;;15.50;8.63;;;5.50;95.60;;;;;;5238543;28;20054;-76
2022/04/05 05:36:49;;;;;;;16.50;8.15;;;5.50;95.10;;;;;;5238670;28;20047;-76
2022/04/05 05:39:21;;;;;;;14.75;7.50;;;5.50;94.90;;;;;;5251461;28;20060;-74
2022/04/05 05:41:54;;;;;;;17.73;8.00;;;5.60;95.00;;;;;;5248015;28;20048;-76
2022/04/05 05:44:27;;;;;;;11.05;6.40;;;5.60;94.30;;;;;;5251681;28;20056;-75
2022/04/05 05:47:00;;;;;;;11.80;7.03;;;5.70;93.10;;;;;;5258560;28;20040;-75
2022/04/05 05:49:32;;;;;;;10.70;7.05;;;5.70;93.50;;;;;;5222909;28;20048;-75
2022/04/05 05:52:05;;;;;;;13.30;7.05;;;5.70;93.50;;;;;;5247626;28;20044;-75
2022/04/05 05:54:37;;;;;;;12.93;7.85;;;5.70;94.00;;;;;;5228440;28;20036;-75
2022/04/05 05:57:10;;;;;;;12.73;7.65;;;5.70;94.20;;;;;;5246562;28;20055;-75
2022/04/05 05:59:42;;;;;;;12.07;7.00;;;5.80;94.00;;;;;;5243483;28;20058;-75
2022/04/05 06:02:14;;;;;;;14.85;7.00;;;5.80;93.30;;;;;;5234683;28;20392;-75
2022/04/05 06:04:47;;;;;;;14.18;7.93;;;5.80;93.60;;;;;;5255687;28;20495;-75
2022/04/05 06:07:19;;;;;;;16.02;7.60;;;5.80;94.10;;;;;;5217482;28;20044;-75
2022/04/05 06:09:51;;;;;;;11.57;6.75;;;5.80;95.20;;;;;;5233648;28;20339;-74
2022/04/05 06:12:24;;;;;;;15.30;6.65;;;5.80;94.90;;;;;;5241411;28;20044;-75
2022/04/05 06:14:56;;;;;;;16.58;6.97;;;5.90;95.40;;;;;;5239897;28;20586;-75
2022/04/05 06:17:29;;;;;;;12.60;7.00;;;5.80;95.90;;;;;;5243067;28;20059;-75
2022/04/05 06:20:02;;;;;;;12.15;6.75;;;5.80;96.40;;;;;;5253495;28;20040;-75
2022/04/05 06:22:44;;;;;;;12.40;7.20;;;5.80;97.60;;;;;;5250932;28;20048;-75
2022/04/05 06:25:19;;;;;;;15.07;7.03;;;5.70;97.70;;;;;;5254952;28;20047;-75
2022/04/05 06:27:51;;;;;;;13.35;7.30;;;5.70;98.10;;;;;;5250556;28;20040;-75
2022/04/05 06:30:25;;;;;;;14.10;7.50;;;5.70;99.40;;;;;;5251127;28;20067;-74
2022/04/05 06:33:06;;;;;;;11.40;7.43;;;5.70;99.80;;;;;;5231323;28;20071;-75
2022/04/05 06:35:42;;;;;;;11.30;6.88;;;5.70;99.90;;;;;;5256570;28;20048;-75
2022/04/05 06:38:15;;;;;;;13.65;6.30;;;5.70;99.90;;;;;;5250653;28;20040;-74
2022/04/05 06:40:47;;;;;;;13.90;7.20;;;5.70;99.90;;;;;;5253441;28;20052;-74
2022/04/05 06:43:24;;;;;;;11.27;6.50;;;5.70;99.90;;;;;;5246578;28;20067;-75
2022/04/05 06:45:57;;;;;;;12.38;6.60;;;5.60;99.90;;;;;;5253176;28;26269;-74
2022/04/05 06:48:30;;;;;;;13.75;6.68;;;5.60;99.90;;;;;;5232044;28;20047;-75
2022/04/05 06:51:02;;;;;;;14.45;7.05;;;5.60;99.90;;;;;;5239307;28;20052;-75
2022/04/05 06:53:35;;;;;;;12.63;7.20;;;5.60;99.90;;;;;;5235298;28;20028;-74
2022/04/05 06:56:09;;;;;;;13.10;7.88;;;5.50;99.90;;;;;;5245720;28;20045;-74
2022/04/05 06:58:41;;;;;;;14.18;7.47;;;5.50;99.90;;;;;;5255135;28;20048;-75
2022/04/05 07:01:13;;;;;;;14.15;8.25;;;5.50;99.90;;;;;;5229604;28;20039;-75
2022/04/05 07:03:46;;;;;;;14.38;7.30;;;5.50;99.90;;;;;;5250991;28;20044;-75
2022/04/05 07:06:19;;;;;;;12.18;6.43;;;5.50;99.90;;;;;;5255898;28;20114;-75
2022/04/05 07:08:51;;;;;;;12.20;7.47;;;5.60;99.90;;;;;;5252771;28;20137;-75
2022/04/05 07:11:24;;;;;;;13.93;7.55;;;5.60;99.90;;;;;;5252299;28;20100;-74
2022/04/05 07:13:56;;;;;;;13.35;7.03;;;5.70;99.90;;;;;;5235674;28;20048;-75
2022/04/05 07:16:29;;;;;;;12.95;7.93;;;5.70;99.90;;;;;;5250256;28;20035;-75
2022/04/05 07:19:01;;;;;;;14.27;7.68;;;5.80;99.90;;;;;;5249572;28;20067;-75
2022/04/05 07:21:34;;;;;;;13.80;7.40;;;5.90;99.90;;;;;;5253728;28;20067;-75
2022/04/05 07:24:06;;;;;;;14.85;7.57;;;5.90;99.90;;;;;;5254801;28;20056;-74
2022/04/05 07:26:39;;;;;;;13.63;8.32;;;6.00;99.90;;;;;;5249742;28;20048;-74
2022/04/05 07:29:11;;;;;;;15.05;7.93;;;6.00;99.90;;;;;;5248699;28;20040;-75
2022/04/05 07:31:44;;;;;;;14.73;8.00;;;6.10;99.90;;;;;;5255264;28;20048;-75
2022/04/05 07:34:16;;;;;;;14.30;8.32;;;6.10;99.90;;;;;;5251203;28;20050;-75
2022/04/05 07:36:49;;;;;;;14.00;8.18;;;6.20;99.90;;;;;;5249383;28;20044;-75
2022/04/05 07:39:23;;;;;;;16.15;7.65;;;6.30;99.90;;;;;;5254180;28;20526;-75
2022/04/05 07:41:55;;;;;;;14.00;7.00;;;6.30;99.90;;;;;;5250238;28;20040;-75
2022/04/05 07:44:27;;;;;;;13.55;7.82;;;6.30;99.90;;;;;;5253939;28;20051;-75
2022/04/05 07:47:00;;;;;;;15.20;7.63;;;6.40;99.90;;;;;;5252431;28;20075;-75
2022/04/05 07:49:32;;;;;;;14.77;8.00;;;6.40;99.90;;;;;;5236854;28;20032;-75
2022/04/05 07:52:05;;;;;;;14.75;7.32;;;6.50;99.90;;;;;;5252572;28;20051;-75
2022/04/05 07:54:37;;;;;;;13.10;7.88;;;6.60;99.90;;;;;;5248506;28;20055;-74
2022/04/05 07:57:10;;;;;;;13.55;7.57;;;6.60;99.90;;;;;;5230631;28;20036;-74
2022/04/05 07:59:42;;;;;;;12.80;7.10;;;6.60;99.90;;;;;;5254217;28;20059;-75
2022/04/05 08:02:15;;;;;;;11.90;6.82;;;6.60;99.90;;;;;;5235705;28;20045;-75
2022/04/05 08:05:08;;;;;;;12.80;6.60;;;6.70;99.90;;;;;;5254509;28;20039;-75
2022/04/05 08:07:40;;;;;;;11.88;5.80;;;6.70;99.90;;;;;;5231018;28;20052;-75
2022/04/05 08:10:13;;;;;;;8.68;5.60;;;6.70;99.90;;;;;;5244367;28;20051;-74
2022/04/05 08:12:47;;;;;;;10.45;5.95;;;6.70;99.90;;;;;;5248147;28;20043;-74
2022/04/05 08:15:21;;;;;;;10.90;6.18;;;6.80;99.90;;;;;;5229726;28;20055;-75
2022/04/05 08:17:54;;;;;;;10.23;4.93;;;6.80;99.90;;;;;;5238184;28;20273;-74
2022/04/05 08:20:26;;;;;;;10.13;5.55;;;6.80;99.90;;;;;;5244720;28;20063;-74
2022/04/05 08:22:59;;;;;;;8.45;5.38;;;6.80;99.90;;;;;;5247071;28;20055;-75
2022/04/05 08:25:33;;;;;;;9.30;5.83;;;6.80;99.90;;;;;;4543442;28;10000049;-74
2022/04/05 08:28:06;;;;;;;9.95;5.97;;;6.90;99.90;;;;;;5231883;28;20433;-75
2022/04/05 08:30:38;;;;;;;9.13;5.55;;;6.90;99.90;;;;;;5227713;28;20693;-75
2022/04/05 08:33:11;;;;;;;12.20;5.90;;;6.90;99.90;;;;;;5246213;28;20051;-75
2022/04/05 08:35:43;;;;;;;14.48;6.30;;;6.90;99.90;;;;;;5236732;28;20044;-74
2022/04/05 08:38:16;;;;;;;9.88;5.47;;;6.90;99.90;;;;;;5251629;28;20048;-75
2022/04/05 08:40:48;;;;;;;10.02;6.15;;;6.90;99.90;;;;;;5245460;28;20820;-74
2022/04/05 08:43:21;;;;;;;7.25;4.72;;;6.80;99.90;;;;;;5247667;28;20443;-75
2022/04/05 08:45:59;;;;;;;10.73;6.22;;;6.80;99.90;;;;;;5232106;28;20066;-75
2022/04/05 08:48:34;;;;;;;13.27;6.85;;;6.70;99.90;;;;;;5247437;28;20043;-75
2022/04/05 08:51:07;;;;;;;13.02;5.85;;;6.80;99.90;;;;;;5244188;28;20052;-74
2022/04/05 08:53:40;;;;;;;10.13;5.63;;;6.80;99.90;;;;;;5223951;28;20530;-75
2022/04/05 08:56:15;;;;;;;11.32;6.55;;;6.80;99.90;;;;;;5243711;28;20048;-75
2022/04/05 08:58:47;;;;;;;7.50;4.90;;;6.90;99.90;;;;;;5244326;28;20063;-73
2022/04/05 09:01:20;;;;;;;9.00;5.38;;;6.90;99.90;;;;;;5246888;28;20048;-75
2022/04/05 09:03:53;;;;;;;10.87;5.93;;;6.90;99.90;;;;;;5241042;28;20052;-75
2022/04/05 09:06:27;;;;;;;11.23;6.18;;;6.90;99.90;;;;;;5223782;28;20310;-74
2022/04/05 09:09:09;;;;;;;7.70;4.63;;;7.00;99.90;;;;;;5243220;28;20036;-75
2022/04/05 09:11:49;;;;;;;12.35;6.03;;;7.10;99.90;;;;;;5244669;28;20047;-75
2022/04/05 09:14:30;;;;;;;11.45;5.55;;;7.20;99.90;;;;;;5248277;28;20052;-75
2022/04/05 09:17:12;;;;;;;14.43;5.78;;;7.30;99.90;;;;;;5227729;28;20075;-75
2022/04/05 09:19:49;;;;;;;18.38;8.60;;;7.30;99.90;;;;;;5226972;28;20264;-75
2022/04/05 09:22:34;;;;;;;13.55;7.68;;;7.40;99.90;;;;;;5246958;28;20052;-75
2022/04/05 09:25:14;;;;;;;8.25;4.88;;;7.60;99.90;;;;;;5238771;28;20059;-75
2022/04/05 09:27:57;;;;;;;9.18;5.43;;;7.70;99.90;;;;;;5249699;28;20055;-74
2022/04/05 09:30:33;;;;;;;10.40;4.00;;;7.80;99.90;;;;;;5250705;28;20043;-74
2022/04/05 09:33:12;;;;;;;9.80;4.20;;;7.80;99.90;;;;;;5249027;28;20438;-75
2022/04/05 09:35:44;;;;;;;6.35;3.50;;;7.80;99.90;;;;;;5257246;28;20044;-75
2022/04/05 09:38:27;;;;;;;5.88;3.78;;;7.80;99.90;;;;;;5259939;28;20597;-75
2022/04/05 09:41:33;;;;;;;5.47;3.90;;;7.80;99.90;;;;;;5239694;28;20078;-75
2022/04/05 09:44:05;;;;;;;5.85;3.70;;;7.90;99.90;;;;;;5223951;28;20068;-75
2022/04/05 09:46:39;;;;;;;9.40;4.20;;;8.00;99.90;;;;;;5258939;28;20055;-75
2022/04/05 09:49:14;;;;;;;7.25;3.75;;;8.00;99.90;;;;;;5249701;28;20044;-75
2022/04/05 09:51:46;;;;;;;4.75;3.00;;;8.10;99.90;;;;;;5257298;28;20040;-75
2022/04/05 09:54:28;;;;;;;6.93;3.33;;;8.20;99.90;;;;;;5256334;28;20594;-75
2022/04/05 09:57:06;;;;;;;5.35;3.63;;;8.20;99.90;;;;;;5257171;28;20048;-75
2022/04/05 09:59:43;;;;;;;6.10;3.45;;;8.20;99.90;;;;;;5258206;28;20040;-75
2022/04/05 10:02:17;;;;;;;8.32;3.50;;;8.30;99.90;;;;;;5248304;28;20048;-75
2022/04/05 10:05:00;;;;;;;7.95;4.75;;;8.40;99.90;;;;;;5257687;28;20051;-75
2022/04/05 10:07:34;;;;;;;8.73;4.78;;;8.40;99.90;;;;;;5253536;28;20055;-75
2022/04/05 10:10:07;;;;;;;7.30;3.63;;;8.50;99.90;;;;;;5255215;28;20118;-75
2022/04/05 10:12:49;;;;;;;5.72;3.50;;;8.50;99.90;;;;;;5240730;28;20075;-75
2022/04/05 10:15:23;;;;;;;4.95;3.53;;;8.50;99.90;;;;;;5256531;28;20155;-75
2022/04/05 10:17:58;;;;;;;5.00;3.50;;;8.50;99.90;;;;;;5256231;28;20548;-75
2022/04/05 10:20:31;;;;;;;6.65;3.40;;;8.50;99.90;;;;;;5256579;28;20110;-75
2022/04/05 10:23:05;;;;;;;10.10;3.53;;;8.60;99.90;;;;;;5242247;28;20052;-75
2022/04/05 10:25:41;;;;;;;5.28;3.47;;;8.60;99.90;;;;;;5238477;28;20051;-75
2022/04/05 10:28:16;;;;;;;4.40;3.17;;;8.70;99.90;;;;;;5254542;28;20055;-75
2022/04/05 10:30:56;;;;;;;5.40;3.10;;;8.80;99.90;;;;;;5255205;28;20056;-75
2022/04/05 10:34:04;;;;;;;7.88;3.60;;;8.80;99.90;;;;;;5258453;28;20067;-75
2022/04/05 10:36:36;;;;;;;6.60;3.25;;;8.80;99.90;;;;;;5238669;28;20048;-75
2022/04/05 10:39:17;;;;;;;5.53;3.42;;;8.80;99.50;;;;;;5257690;28;20040;-75
2022/04/05 10:42:11;;;;;;;4.25;2.85;;;8.70;98.60;;;;;;5255325;28;20059;-75
2022/04/05 10:44:50;;;;;;;4.35;3.22;;;8.80;99.90;;;;;;5257025;28;20055;-75
2022/04/05 10:47:23;;;;;;;6.03;3.55;;;8.90;97.60;;;;;;5255394;28;20271;-74
2022/04/05 10:50:17;;;;;;;5.32;3.10;;;8.90;98.80;;;;;;5258803;28;20040;-74
2022/04/05 10:53:11;;;;;;;6.57;3.13;;;8.90;99.90;;;;;;5255622;28;20103;-74
2022/04/05 10:56:02;;;;;;;4.32;3.10;;;9.00;99.90;;;;;;5255931;28;20052;-75
2022/04/05 10:58:48;;;;;;;5.18;3.13;;;9.00;99.90;;;;;;5257315;28;20044;-75
2022/04/05 11:01:25;;;;;;;4.95;3.60;;;9.00;99.90;;;;;;5256021;28;20048;-75
2022/04/05 11:04:09;;;;;;;6.95;3.78;;;9.10;99.90;;;;;;5256030;28;20067;-75
2022/04/05 11:07:06;;;;;;;5.32;3.47;;;9.20;99.90;;;;;;5254858;28;20951;-75
2022/04/05 11:09:50;;;;;;;8.18;3.75;;;9.30;99.90;;;;;;5255971;28;20503;-75
2022/04/05 11:12:28;;;;;;;5.88;3.72;;;9.40;99.90;;;;;;5257215;28;20054;-75
2022/04/05 11:15:08;;;;;;;5.35;3.53;;;9.40;99.90;;;;;;5244749;28;20407;-75
2022/04/05 11:17:42;;;;;;;5.07;3.35;;;9.50;99.90;;;;;;5243026;28;20047;-75
2022/04/05 11:20:16;;;;;;;6.03;3.95;;;9.40;99.90;;;;;;5241862;28;20067;-75
2022/04/05 11:23:00;;;;;;;5.40;3.90;;;9.40;99.90;;;;;;5244730;28;20052;-75
2022/04/05 11:25:32;;;;;;;7.30;3.85;;;9.40;99.90;;;;;;5249623;28;20044;-76
2022/04/05 11:28:14;;;;;;;5.80;3.60;;;9.40;99.90;;;;;;5241345;28;20043;-76
2022/04/05 11:31:04;;;;;;;5.63;3.58;;;9.40;99.90;;;;;;5244327;28;20044;-75
2022/04/05 11:33:39;;;;;;;6.18;3.80;;;9.40;99.90;;;;;;4537678;28;9999822;-75
2022/04/05 11:36:13;;;;;;;6.68;3.55;;;9.30;99.90;;;;;;5255703;28;20059;-75
2022/04/05 11:38:49;;;;;;;6.20;3.78;;;9.20;99.90;;;;;;5236985;28;20060;-74
2022/04/05 11:41:24;;;;;;;6.63;3.95;;;9.20;99.90;;;;;;5239028;28;20491;-75
2022/04/05 11:44:01;;;;;;;5.93;3.70;;;9.20;99.90;;;;;;5252044;28;20075;-75
2022/04/05 11:46:36;;;;;;;5.68;3.83;;;9.30;99.90;;;;;;5257329;28;20047;-76
2022/04/05 11:49:14;;;;;;;6.38;4.32;;;9.30;99.90;;;;;;5254848;28;20036;-76
2022/04/05 11:51:48;;;;;;;6.85;3.80;;;9.30;99.90;;;;;;5253768;28;20052;-74
2022/04/05 11:54:27;;;;;;;5.53;3.90;;;9.30;99.90;;;;;;5249397;28;20048;-76
2022/04/05 11:57:05;;;;;;;7.07;4.05;;;9.30;99.90;;;;;;5250156;28;20044;-76
2022/04/05 11:59:37;;;;;;;9.48;4.05;;;9.30;99.90;;;;;;5252477;28;20048;-75
2022/04/05 12:02:10;;;;;;;7.15;3.53;;;9.20;99.90;;;;;;5250930;28;20055;-75
2022/04/05 12:04:42;;;;;;;5.63;3.55;;;9.30;99.90;;;;;;5247180;28;20044;-73
2022/04/05 12:07:15;;;;;;;5.80;3.70;;;9.30;99.90;;;;;;5225748;28;20051;-76
2022/04/05 12:09:47;;;;;;;6.32;3.60;;;9.30;99.90;;;;;;5241044;28;20047;-76
2022/04/05 12:12:20;;;;;;;7.53;4.25;;;9.30;99.90;;;;;;5243623;28;20504;-77
2022/04/05 12:14:52;;;;;;;6.35;3.60;;;9.40;99.90;;;;;;5245562;28;20479;-76
2022/04/05 12:17:25;;;;;;;10.52;4.10;;;9.40;99.90;;;;;;5231626;28;20040;-75
2022/04/05 12:19:57;;;;;;;12.30;5.93;;;9.40;99.90;;;;;;5249337;28;20052;-76
2022/04/05 12:22:32;;;;;;;6.18;3.83;;;9.40;99.90;;;;;;5237730;28;20059;-75
2022/04/05 12:25:08;;;;;;;10.77;4.80;;;9.40;99.90;;;;;;5235894;28;20778;-75
2022/04/05 12:27:52;;;;;;;5.70;3.80;;;9.50;99.90;;;;;;5236877;28;20056;-75
2022/04/05 12:30:29;;;;;;;8.35;3.65;;;9.50;99.90;;;;;;5236440;28;20055;-76
2022/04/05 12:33:03;;;;;;;7.32;3.83;;;9.50;99.90;;;;;;5212408;28;20276;-76
2022/04/05 12:35:35;;;;;;;7.65;3.90;;;9.40;99.90;;;;;;5239278;28;20055;-78
2022/04/05 12:38:08;;;;;;;6.68;4.35;;;9.50;99.90;;;;;;5235867;28;20056;-76
2022/04/05 12:40:41;;;;;;;6.35;3.63;;;9.60;99.90;;;;;;5239722;28;20554;-76
2022/04/05 12:43:16;;;;;;;5.15;3.53;;;9.60;99.90;;;;;;5238785;28;20055;-77
2022/04/05 12:45:50;;;;;;;5.93;4.03;;;9.60;99.90;;;;;;5242106;28;20051;-75
2022/04/05 12:48:22;;;;;;;5.57;3.15;;;9.60;99.90;;;;;;5242963;28;20040;-76
2022/04/05 12:50:55;;;;;;;8.40;4.18;;;9.70;99.90;;;;;;5227629;28;20623;-76
2022/04/05 12:53:31;;;;;;;6.63;3.50;;;9.70;99.90;;;;;;5239064;28;21243;-76
2022/04/05 12:56:09;;;;;;;7.00;4.13;;;9.80;99.90;;;;;;5240415;28;20388;-76
2022/04/05 12:58:48;;;;;;;6.93;4.43;;;9.80;99.90;;;;;;5240188;28;20509;-77
2022/04/05 13:01:23;;;;;;;8.13;4.03;;;9.90;99.90;;;;;;5240947;28;20482;-76
2022/04/05 13:03:58;;;;;;;7.00;4.07;;;9.90;99.90;;;;;;5246367;28;20048;-76
2022/04/05 13:06:32;;;;;;;5.22;3.65;;;9.80;99.90;;;;;;5231217;28;20403;-77
2022/04/05 13:09:05;;;;;;;;;;;9.90;99.90;;;;;;5252174;28;20055;-76
2022/04/05 13:11:38;;;;;;;7.63;3.57;;;9.90;99.90;;;;;;5248425;28;19928;-76
2022/04/05 13:14:15;;;;;;;4.55;3.22;;;9.90;99.90;;;;;;5242549;28;22472;-76
2022/04/05 13:16:59;;;;;;;6.28;3.88;;;9.90;99.90;;;;;;5248120;28;20052;-75
2022/04/05 13:19:32;;;;;;;7.68;4.25;;;10.00;99.90;;;;;;5216654;28;20044;-76
2022/04/05 13:22:13;;;;;;;7.97;4.40;;;10.10;99.90;;;;;;5228046;28;20680;-76
2022/04/05 13:24:47;;;;;;;6.32;3.63;;;10.10;99.90;;;;;;5243188;28;20474;-77
2022/04/05 13:27:22;;;;;;;6.03;3.88;;;10.20;99.90;;;;;;5246415;28;20126;-76
2022/04/05 13:29:54;;;;;;;6.63;3.38;;;10.20;99.90;;;;;;5250842;28;20048;-75